Time;durP1;ratioP1;P1;durP2;ratioP2;P2;SDS_P1;SDS_P2;PMS_P1;PMS_P2;Temp;Humidity;BMP_temperature;BMP_pressure;BME280_temperature;BME280_humidity;BME280_pressure;Samples;Min_cycle;Max_cycle;Signal;HPM_P1;HPM_P2
2023/03/05 00:01:14;;;;;;;57.60;23.48;;;1.10;48.00;;;;;;5031380;28;47209;-61
2023/03/05 00:03:40;;;;;;;53.60;23.63;;;1.00;48.10;;;;;;5030869;28;46624;-61
2023/03/05 00:06:06;;;;;;;61.08;25.60;;;1.00;48.30;;;;;;5030753;28;46479;-61
2023/03/05 00:08:32;;;;;;;59.40;23.90;;;0.90;48.40;;;;;;5034776;28;46469;-60
2023/03/05 00:11:00;;;;;;;53.35;23.95;;;0.90;48.60;;;;;;5031106;28;47968;-61
2023/03/05 00:13:26;;;;;;;50.30;23.35;;;0.90;48.80;;;;;;5030853;28;46658;-62
2023/03/05 00:15:52;;;;;;;64.00;25.60;;;0.80;48.90;;;;;;5033554;28;46395;-61
2023/03/05 00:18:18;;;;;;;59.13;24.70;;;0.90;49.00;;;;;;5030717;28;46523;-61
2023/03/05 00:20:44;;;;;;;54.55;25.38;;;0.90;48.90;;;;;;5029648;28;47137;-60
2023/03/05 00:23:10;;;;;;;55.58;22.63;;;0.90;48.70;;;;;;5032550;28;46431;-59
2023/03/05 00:25:36;;;;;;;54.23;23.50;;;1.10;48.70;;;;;;5031878;28;46407;-59
2023/03/05 00:28:02;;;;;;;56.77;24.30;;;1.10;48.50;;;;;;5032646;28;46369;-60
2023/03/05 00:30:29;;;;;;;53.53;24.90;;;1.20;48.30;;;;;;5033318;28;47114;-60
2023/03/05 00:32:55;;;;;;;51.65;23.77;;;1.20;48.20;;;;;;5031418;28;45839;-59
2023/03/05 00:35:20;;;;;;;50.97;24.10;;;1.20;47.90;;;;;;5032139;28;46418;-59
2023/03/05 00:37:46;;;;;;;55.43;25.80;;;1.30;48.00;;;;;;5029247;28;46462;-61
2023/03/05 00:40:12;;;;;;;54.93;25.47;;;1.30;48.00;;;;;;5034550;28;47049;-59
2023/03/05 00:42:37;;;;;;;52.70;24.67;;;1.40;48.20;;;;;;5031329;28;46459;-61
2023/03/05 00:45:07;;;;;;;55.40;25.10;;;1.40;48.20;;;;;;5029709;28;46506;-60
2023/03/05 00:47:33;;;;;;;54.53;23.25;;;1.40;47.90;;;;;;5028043;28;46400;-60
2023/03/05 00:49:59;;;;;;;61.60;25.43;;;1.50;49.10;;;;;;5030889;28;47328;-62
2023/03/05 00:52:24;;;;;;;54.53;24.37;;;1.50;47.80;;;;;;5028053;28;46384;-60
2023/03/05 00:54:50;;;;;;;55.97;25.70;;;1.60;47.80;;;;;;5034999;28;46454;-61
2023/03/05 00:57:16;;;;;;;52.57;23.17;;;1.60;47.90;;;;;;5024307;28;46300;-59
2023/03/05 00:59:42;;;;;;;58.95;23.75;;;1.60;48.10;;;;;;5035355;28;46457;-59
2023/03/05 01:02:07;;;;;;;52.03;23.90;;;1.60;48.20;;;;;;5030271;28;46339;-61
2023/03/05 01:04:33;;;;;;;49.50;23.57;;;1.60;48.30;;;;;;5030889;28;46425;-61
2023/03/05 01:06:59;;;;;;;52.07;22.47;;;1.60;48.20;;;;;;5036736;28;46459;-59
2023/03/05 01:09:24;;;;;;;50.87;23.80;;;1.60;48.30;;;;;;5032476;28;46441;-61
2023/03/05 01:11:51;;;;;;;58.17;23.90;;;1.60;48.30;;;;;;5032710;28;46335;-62
2023/03/05 01:14:17;;;;;;;56.45;23.83;;;1.60;48.30;;;;;;5031598;28;45881;-59
2023/03/05 01:16:43;;;;;;;52.97;22.38;;;1.60;48.30;;;;;;5033602;28;46393;-61
2023/03/05 01:19:09;;;;;;;52.07;22.97;;;1.60;48.30;;;;;;5034810;28;46333;-62
2023/03/05 01:21:36;;;;;;;57.57;22.97;;;1.60;48.30;;;;;;5034661;28;46451;-59
2023/03/05 01:24:02;;;;;;;50.70;22.70;;;1.60;48.20;;;;;;5034931;28;46338;-60
2023/03/05 01:26:28;;;;;;;51.88;22.08;;;1.70;48.00;;;;;;5031131;28;46483;-61
2023/03/05 01:28:53;;;;;;;48.63;21.43;;;1.70;47.90;;;;;;5033307;28;48035;-61
2023/03/05 01:31:19;;;;;;;51.57;23.00;;;1.80;48.00;;;;;;5029859;28;45802;-61
2023/03/05 01:33:45;;;;;;;45.72;21.67;;;1.80;47.80;;;;;;5032758;28;46477;-60
2023/03/05 01:36:15;;;;;;;53.40;21.73;;;1.90;47.90;;;;;;5038871;28;46436;-60
2023/03/05 01:38:42;;;;;;;49.70;21.33;;;1.90;47.70;;;;;;5037009;28;47428;-60
2023/03/05 01:41:08;;;;;;;45.75;20.63;;;1.80;47.90;;;;;;5034753;28;46054;-61
2023/03/05 01:43:33;;;;;;;50.28;22.02;;;1.80;48.00;;;;;;5036995;28;46505;-60
2023/03/05 01:46:27;;;;;;;56.03;22.70;;;1.80;48.20;;;;;;5034889;28;46483;-60
2023/03/05 01:49:09;;;;;;;49.85;22.63;;;1.70;48.40;;;;;;5035068;28;46463;-60
2023/03/05 01:51:59;;;;;;;45.72;21.02;;;1.80;48.40;;;;;;5029819;28;46512;-60
2023/03/05 01:54:32;;;;;;;52.45;21.63;;;1.80;48.30;;;;;;5034527;28;46403;-60
2023/03/05 01:57:05;;;;;;;52.35;20.75;;;1.80;48.40;;;;;;5037983;28;46343;-60
2023/03/05 01:59:32;;;;;;;51.78;22.25;;;1.80;48.20;;;;;;5032286;28;46386;-60
2023/03/05 02:01:59;;;;;;;55.45;23.00;;;1.90;48.10;;;;;;5032949;28;46481;-58
2023/03/05 02:04:31;;;;;;;51.25;20.98;;;1.90;47.90;;;;;;5032340;28;46485;-61
2023/03/05 02:06:58;;;;;;;51.25;22.73;;;1.90;47.90;;;;;;5030273;28;46539;-60
2023/03/05 02:09:27;;;;;;;52.00;23.02;;;1.90;48.00;;;;;;5034551;28;46438;-61
2023/03/05 02:11:53;;;;;;;51.22;20.92;;;1.90;47.90;;;;;;5034933;28;45859;-60
2023/03/05 02:14:19;;;;;;;48.38;19.90;;;2.00;48.00;;;;;;5033471;28;46326;-61
2023/03/05 02:16:45;;;;;;;46.95;21.23;;;2.00;47.80;;;;;;5032735;28;46349;-60
2023/03/05 02:19:12;;;;;;;48.60;21.23;;;2.00;47.90;;;;;;5021416;28;48453;-61
2023/03/05 02:21:44;;;;;;;54.67;22.63;;;2.00;47.90;;;;;;5021244;28;46739;-59
2023/03/05 02:24:15;;;;;;;52.83;23.23;;;2.10;48.00;;;;;;5031476;28;46299;-60
2023/03/05 02:26:43;;;;;;;48.75;21.10;;;2.00;48.00;;;;;;5032551;28;45805;-59
2023/03/05 02:29:17;;;;;;;59.80;23.52;;;2.00;48.20;;;;;;5039207;28;46435;-61
2023/03/05 02:31:43;;;;;;;47.05;21.70;;;2.00;48.10;;;;;;5034987;28;46425;-61
2023/03/05 02:34:08;;;;;;;47.43;21.97;;;2.00;48.20;;;;;;5033641;28;46366;-61
2023/03/05 02:36:34;;;;;;;50.27;22.17;;;2.00;48.40;;;;;;5029840;28;46621;-60
2023/03/05 02:39:00;;;;;;;44.70;21.70;;;2.00;48.50;;;;;;5031242;28;46161;-61
2023/03/05 02:41:25;;;;;;;49.07;22.10;;;2.00;48.50;;;;;;5034007;28;46451;-60
2023/03/05 02:43:51;;;;;;;47.37;22.27;;;2.00;48.50;;;;;;5033198;28;46728;-60
2023/03/05 02:46:17;;;;;;;43.90;19.67;;;2.00;48.30;;;;;;5033132;28;46435;-60
2023/03/05 02:48:43;;;;;;;48.30;21.13;;;2.00;48.50;;;;;;5030186;28;46508;-60
2023/03/05 02:51:09;;;;;;;56.05;21.77;;;2.00;48.40;;;;;;5030841;28;45989;-60
2023/03/05 02:53:35;;;;;;;50.15;21.42;;;2.00;48.50;;;;;;5030909;28;46489;-60
2023/03/05 02:56:01;;;;;;;45.93;20.47;;;2.00;48.70;;;;;;5031108;28;46277;-61
2023/03/05 02:58:27;;;;;;;44.20;20.63;;;1.90;48.60;;;;;;5035289;28;46271;-63
2023/03/05 03:00:52;;;;;;;47.47;21.30;;;2.00;48.80;;;;;;5033144;28;46434;-60
2023/03/05 03:03:18;;;;;;;44.27;19.93;;;2.00;48.80;;;;;;5034883;28;46378;-59
2023/03/05 03:05:43;;;;;;;40.50;19.30;;;2.00;48.70;;;;;;5030868;28;46796;-59
2023/03/05 03:08:09;;;;;;;39.17;19.30;;;2.00;48.80;;;;;;5029309;28;46130;-59
2023/03/05 03:10:35;;;;;;;42.63;20.03;;;2.00;48.70;;;;;;5032687;28;45796;-59
2023/03/05 03:13:00;;;;;;;42.90;21.13;;;2.00;48.70;;;;;;5028280;28;46385;-59
2023/03/05 03:15:26;;;;;;;45.83;21.50;;;2.00;48.60;;;;;;5035131;28;46708;-60
2023/03/05 03:17:53;;;;;;;41.57;19.10;;;2.10;48.60;;;;;;5033174;28;46003;-59
2023/03/05 03:20:18;;;;;;;39.25;19.08;;;2.10;48.60;;;;;;5032997;28;46430;-59
2023/03/05 03:22:45;;;;;;;43.40;19.53;;;2.10;48.60;;;;;;5030860;28;46411;-61
2023/03/05 03:25:17;;;;;;;41.95;19.67;;;2.10;48.40;;;;;;5033604;28;46395;-60
2023/03/05 03:27:43;;;;;;;43.22;19.75;;;2.20;48.30;;;;;;5032728;28;47379;-59
2023/03/05 03:30:09;;;;;;;40.20;19.23;;;2.20;48.30;;;;;;5032265;28;46465;-62
2023/03/05 03:32:35;;;;;;;48.17;21.33;;;2.20;48.40;;;;;;5037220;28;46406;-61
2023/03/05 03:35:00;;;;;;;42.93;19.17;;;2.20;48.50;;;;;;5026909;28;46288;-60
2023/03/05 03:37:26;;;;;;;40.77;18.73;;;2.20;48.40;;;;;;5026432;28;46401;-61
2023/03/05 03:39:52;;;;;;;43.23;19.27;;;2.30;48.50;;;;;;5033652;28;46491;-60
2023/03/05 03:42:22;;;;;;;45.70;19.83;;;2.30;48.40;;;;;;5034609;28;46530;-61
2023/03/05 03:44:48;;;;;;;43.50;19.60;;;2.20;48.50;;;;;;5033061;28;46572;-61
2023/03/05 03:47:14;;;;;;;46.38;19.33;;;2.30;48.50;;;;;;5032087;28;46224;-61
2023/03/05 03:49:40;;;;;;;50.10;21.10;;;2.30;48.50;;;;;;5029384;28;46564;-62
2023/03/05 03:52:05;;;;;;;43.47;20.60;;;2.30;48.40;;;;;;5029437;28;46441;-61
2023/03/05 03:54:32;;;;;;;45.10;20.13;;;2.30;48.50;;;;;;5030333;28;46629;-61
2023/03/05 03:56:57;;;;;;;41.45;20.20;;;2.40;48.50;;;;;;5031028;28;46439;-61
2023/03/05 03:59:23;;;;;;;45.57;20.33;;;2.40;48.40;;;;;;5031829;28;45796;-60
2023/03/05 04:01:49;;;;;;;48.30;20.13;;;2.40;48.30;;;;;;5033231;28;46499;-61
2023/03/05 04:04:14;;;;;;;46.53;18.60;;;2.40;48.30;;;;;;5029492;28;46429;-61
2023/03/05 04:06:40;;;;;;;43.83;19.97;;;2.40;48.30;;;;;;5028916;28;46409;-61
2023/03/05 04:09:07;;;;;;;52.20;21.10;;;2.40;48.30;;;;;;5029446;28;46295;-60
2023/03/05 04:11:33;;;;;;;46.58;18.80;;;2.30;48.30;;;;;;5030772;28;46416;-61
2023/03/05 04:13:59;;;;;;;51.60;20.50;;;2.40;48.50;;;;;;5024654;28;46562;-59
2023/03/05 04:16:25;;;;;;;40.93;20.40;;;2.40;48.60;;;;;;5029344;28;46404;-61
2023/03/05 04:18:50;;;;;;;43.87;20.07;;;2.40;48.40;;;;;;5032614;28;46517;-61
2023/03/05 04:21:16;;;;;;;42.23;19.10;;;2.40;48.40;;;;;;5030718;28;46409;-61
2023/03/05 04:23:42;;;;;;;45.20;20.20;;;2.40;48.40;;;;;;5028170;28;46410;-61
2023/03/05 04:26:07;;;;;;;45.57;21.00;;;2.40;48.20;;;;;;5030105;28;46373;-60
2023/03/05 04:28:33;;;;;;;47.17;20.57;;;2.50;48.40;;;;;;5030059;28;46324;-61
2023/03/05 04:30:59;;;;;;;42.50;19.33;;;2.50;48.50;;;;;;5034004;28;46298;-60
2023/03/05 04:33:24;;;;;;;43.50;21.10;;;2.50;48.40;;;;;;5031357;28;46581;-61
2023/03/05 04:35:50;;;;;;;44.53;20.73;;;2.50;48.30;;;;;;5031134;28;47072;-61
2023/03/05 04:38:16;;;;;;;44.00;20.33;;;2.50;48.20;;;;;;5029682;28;46524;-61
2023/03/05 04:40:43;;;;;;;40.27;18.47;;;2.50;49.30;;;;;;5029874;28;46379;-60
2023/03/05 04:43:09;;;;;;;44.10;20.85;;;2.60;48.10;;;;;;5029846;28;45994;-61
2023/03/05 04:45:35;;;;;;;45.87;19.87;;;2.60;48.20;;;;;;5030260;28;46304;-61
2023/03/05 04:48:01;;;;;;;43.50;20.10;;;2.50;48.20;;;;;;5030714;28;46215;-61
2023/03/05 04:50:27;;;;;;;38.50;18.57;;;2.60;48.20;;;;;;5029857;28;46454;-60
2023/03/05 04:52:53;;;;;;;40.67;19.10;;;2.60;48.10;;;;;;5029047;28;46407;-59
2023/03/05 04:55:18;;;;;;;38.45;18.52;;;2.60;47.90;;;;;;5032805;28;46366;-61
2023/03/05 04:57:44;;;;;;;44.43;20.93;;;2.70;47.90;;;;;;5028969;28;46366;-61
2023/03/05 05:00:13;;;;;;;44.07;19.97;;;2.70;47.80;;;;;;5031966;28;46710;-59
2023/03/05 05:02:40;;;;;;;45.45;21.23;;;2.70;47.70;;;;;;5032836;28;46395;-59
2023/03/05 05:05:05;;;;;;;49.75;20.80;;;2.70;47.90;;;;;;5026078;28;47085;-61
2023/03/05 05:07:31;;;;;;;45.03;20.33;;;2.70;47.90;;;;;;5025167;28;46707;-61
2023/03/05 05:09:57;;;;;;;49.90;20.37;;;2.70;47.90;;;;;;5030781;28;46515;-62
2023/03/05 05:12:23;;;;;;;45.93;20.93;;;2.70;47.90;;;;;;5030203;28;46346;-60
2023/03/05 05:14:48;;;;;;;48.33;22.07;;;2.70;47.90;;;;;;5030885;28;46467;-61
2023/03/05 05:17:14;;;;;;;44.80;20.23;;;2.70;47.80;;;;;;5029574;28;46370;-61
2023/03/05 05:19:40;;;;;;;47.63;21.27;;;2.70;47.70;;;;;;5029254;28;46390;-61
2023/03/05 05:22:05;;;;;;;40.23;20.30;;;2.70;47.90;;;;;;5030324;28;46361;-61
2023/03/05 05:24:31;;;;;;;45.00;21.63;;;2.70;47.90;;;;;;5030935;28;46427;-60
2023/03/05 05:26:56;;;;;;;50.87;22.10;;;2.70;47.80;;;;;;5019384;28;46498;-61
2023/03/05 05:29:22;;;;;;;50.10;21.70;;;2.70;48.00;;;;;;5017911;28;46335;-61
2023/03/05 05:31:48;;;;;;;41.13;20.20;;;2.70;48.10;;;;;;5027070;28;46422;-62
2023/03/05 05:34:14;;;;;;;46.83;20.73;;;2.70;48.00;;;;;;5025643;28;47016;-62
2023/03/05 05:36:40;;;;;;;47.15;21.45;;;2.70;48.00;;;;;;5031983;28;46473;-62
2023/03/05 05:39:05;;;;;;;65.90;26.47;;;2.70;48.20;;;;;;5028577;28;45817;-62
2023/03/05 05:41:31;;;;;;;74.23;30.90;;;2.70;47.90;;;;;;5031209;28;46625;-62
2023/03/05 05:43:57;;;;;;;99.27;39.20;;;2.80;47.80;;;;;;5030219;28;46316;-62
2023/03/05 05:46:23;;;;;;;121.70;47.37;;;2.70;48.00;;;;;;5029434;28;46370;-60
2023/03/05 05:48:49;;;;;;;128.32;48.30;;;2.70;48.00;;;;;;5031924;28;46641;-61
2023/03/05 05:51:21;;;;;;;151.33;57.83;;;2.70;48.00;;;;;;5033624;28;46518;-61
2023/03/05 05:53:47;;;;;;;147.32;56.55;;;2.80;47.90;;;;;;5031444;28;46376;-60
2023/03/05 05:56:15;;;;;;;93.35;42.40;;;2.80;47.80;;;;;;5033286;28;46394;-60
2023/03/05 05:58:42;;;;;;;60.45;28.65;;;2.80;48.00;;;;;;5030268;28;46484;-60
2023/03/05 06:01:12;;;;;;;51.00;24.35;;;2.80;47.90;;;;;;5017954;28;46430;-61
2023/03/05 06:03:37;;;;;;;45.28;21.85;;;2.80;47.80;;;;;;5031732;28;46392;-62
2023/03/05 06:06:08;;;;;;;51.23;23.27;;;2.80;48.00;;;;;;5034139;28;46602;-62
2023/03/05 06:08:33;;;;;;;51.33;22.77;;;2.80;48.00;;;;;;5033896;28;46322;-61
2023/03/05 06:10:59;;;;;;;51.33;23.00;;;2.80;48.00;;;;;;5036344;28;46335;-61
2023/03/05 06:13:25;;;;;;;47.70;22.43;;;2.70;48.10;;;;;;5031303;28;46962;-62
2023/03/05 06:15:58;;;;;;;45.37;22.20;;;2.70;48.20;;;;;;5033883;28;46521;-61
2023/03/05 06:18:24;;;;;;;51.35;21.48;;;2.80;48.20;;;;;;5034545;28;46521;-61
2023/03/05 06:20:57;;;;;;;45.60;20.67;;;2.80;48.00;;;;;;5035746;28;46427;-62
2023/03/05 06:23:24;;;;;;;44.55;22.50;;;2.80;47.70;;;;;;5030934;28;47291;-62
2023/03/05 06:25:50;;;;;;;54.78;24.17;;;2.80;47.90;;;;;;5032524;28;46503;-61
2023/03/05 06:28:16;;;;;;;44.17;22.20;;;2.90;49.20;;;;;;5031837;28;45912;-62
2023/03/05 06:30:42;;;;;;;53.33;25.17;;;2.90;47.90;;;;;;5033810;28;46451;-62
2023/03/05 06:33:07;;;;;;;46.00;21.30;;;2.90;48.10;;;;;;5034125;28;46378;-62
2023/03/05 06:35:33;;;;;;;48.00;21.03;;;2.90;47.90;;;;;;5033463;28;45842;-61
2023/03/05 06:37:58;;;;;;;48.67;21.57;;;2.90;48.00;;;;;;5032052;28;45806;-60
2023/03/05 06:40:24;;;;;;;49.30;22.23;;;2.90;48.00;;;;;;5033075;28;46577;-60
2023/03/05 06:42:50;;;;;;;43.40;21.07;;;3.00;47.90;;;;;;5033179;28;47256;-61
2023/03/05 06:45:15;;;;;;;49.33;22.73;;;3.00;47.90;;;;;;5035439;28;46537;-61
2023/03/05 06:47:41;;;;;;;52.77;23.57;;;3.10;47.70;;;;;;5032040;28;45869;-59
2023/03/05 06:50:08;;;;;;;47.77;21.63;;;3.10;47.60;;;;;;5031971;28;46383;-61
2023/03/05 06:52:33;;;;;;;44.72;21.70;;;3.20;47.40;;;;;;5032111;28;46867;-60
2023/03/05 06:54:59;;;;;;;54.50;22.83;;;3.20;47.50;;;;;;5032056;28;46383;-61
2023/03/05 06:57:25;;;;;;;48.60;21.87;;;3.20;47.30;;;;;;5029418;28;46411;-61
2023/03/05 06:59:51;;;;;;;47.00;20.73;;;3.20;47.30;;;;;;5033866;28;46689;-61
2023/03/05 07:02:17;;;;;;;45.17;21.10;;;3.20;47.60;;;;;;5029900;28;46449;-62
2023/03/05 07:04:43;;;;;;;53.78;23.20;;;3.20;47.50;;;;;;5031856;28;46498;-61
2023/03/05 07:07:09;;;;;;;47.47;21.50;;;3.20;47.30;;;;;;5033953;28;46405;-62
2023/03/05 07:09:36;;;;;;;48.47;21.90;;;3.30;47.20;;;;;;5030750;28;46351;-59
2023/03/05 07:12:02;;;;;;;50.70;21.00;;;3.30;46.90;;;;;;5032727;28;46438;-60
2023/03/05 07:14:28;;;;;;;48.50;23.80;;;3.30;46.90;;;;;;5030693;28;46457;-60
2023/03/05 07:16:53;;;;;;;52.30;23.57;;;3.30;46.90;;;;;;5034630;28;46426;-61
2023/03/05 07:19:19;;;;;;;51.10;23.40;;;3.40;47.30;;;;;;5030142;28;45859;-62
2023/03/05 07:21:45;;;;;;;43.27;21.80;;;3.30;47.30;;;;;;5031515;28;47259;-62
2023/03/05 07:24:12;;;;;;;43.90;21.43;;;3.40;47.40;;;;;;5031408;28;46433;-62
2023/03/05 07:26:37;;;;;;;47.05;20.83;;;3.40;47.50;;;;;;5033411;28;46528;-60
2023/03/05 07:29:03;;;;;;;49.50;23.53;;;3.40;47.50;;;;;;5032269;28;46378;-60
2023/03/05 07:31:30;;;;;;;53.13;23.80;;;3.40;47.20;;;;;;5031015;28;45915;-59
2023/03/05 07:33:57;;;;;;;59.72;24.00;;;3.40;47.40;;;;;;5020765;28;46499;-61
2023/03/05 07:36:23;;;;;;;49.50;24.50;;;3.50;47.10;;;;;;5029437;28;45886;-60
2023/03/05 07:38:49;;;;;;;50.27;24.00;;;3.50;47.10;;;;;;5032434;28;46428;-61
2023/03/05 07:41:20;;;;;;;44.50;22.37;;;3.50;47.10;;;;;;5034133;28;46716;-61
2023/03/05 07:43:47;;;;;;;47.78;22.23;;;3.50;47.10;;;;;;5032881;28;46504;-60
2023/03/05 07:46:15;;;;;;;48.15;21.67;;;3.50;47.10;;;;;;5035118;28;46466;-61
2023/03/05 07:48:40;;;;;;;43.08;19.85;;;3.50;47.10;;;;;;5029910;28;46415;-59
2023/03/05 07:51:11;;;;;;;38.80;19.80;;;3.60;47.20;;;;;;5034076;28;46425;-59
2023/03/05 07:53:36;;;;;;;48.33;22.92;;;3.60;47.10;;;;;;5034523;28;46385;-61
2023/03/05 07:56:02;;;;;;;35.10;18.27;;;3.60;47.10;;;;;;5028563;28;46465;-61
2023/03/05 07:58:28;;;;;;;41.17;19.37;;;3.70;47.20;;;;;;5031082;28;46445;-62
2023/03/05 08:00:54;;;;;;;34.20;17.47;;;3.80;47.30;;;;;;5031349;28;46497;-59
2023/03/05 08:03:19;;;;;;;38.00;19.20;;;3.80;47.30;;;;;;5031895;28;46375;-61
2023/03/05 08:05:45;;;;;;;37.30;17.77;;;3.80;47.30;;;;;;5031895;28;46577;-61
2023/03/05 08:08:11;;;;;;;36.97;17.40;;;3.80;47.30;;;;;;5032670;28;46621;-60
2023/03/05 08:10:37;;;;;;;37.37;18.23;;;3.80;47.30;;;;;;5030104;28;46474;-60
2023/03/05 08:13:03;;;;;;;36.30;16.67;;;3.80;47.30;;;;;;5026340;28;46450;-62
2023/03/05 08:15:30;;;;;;;33.00;16.75;;;3.70;47.20;;;;;;5029372;28;46405;-62
2023/03/05 08:17:56;;;;;;;33.00;16.90;;;3.70;47.20;;;;;;5032647;28;46601;-60
2023/03/05 08:20:21;;;;;;;37.93;16.70;;;3.80;47.30;;;;;;5028321;28;46681;-61
2023/03/05 08:22:47;;;;;;;39.33;17.83;;;3.80;47.30;;;;;;5031920;28;46366;-60
2023/03/05 08:25:13;;;;;;;41.40;16.90;;;3.80;47.30;;;;;;5031229;28;46416;-61
2023/03/05 08:27:43;;;;;;;35.43;16.43;;;3.90;47.40;;;;;;5030491;28;46262;-61
2023/03/05 08:30:12;;;;;;;32.67;16.43;;;3.90;47.40;;;;;;5028800;28;46284;-62
2023/03/05 08:32:38;;;;;;;31.00;15.80;;;4.00;47.50;;;;;;5028350;28;46308;-61
2023/03/05 08:35:05;;;;;;;34.90;16.03;;;4.10;47.60;;;;;;5029482;28;46375;-61
2023/03/05 08:37:31;;;;;;;36.83;16.40;;;4.20;47.60;;;;;;5030865;28;46454;-60
2023/03/05 08:39:57;;;;;;;34.22;16.10;;;4.20;47.60;;;;;;5029402;28;47310;-60
2023/03/05 08:42:23;;;;;;;34.70;15.50;;;4.30;47.40;;;;;;5033025;28;45820;-61
2023/03/05 08:44:49;;;;;;;32.17;13.85;;;4.30;47.40;;;;;;5028757;28;46386;-60
2023/03/05 08:47:15;;;;;;;31.83;14.23;;;4.10;47.50;;;;;;5031956;28;46359;-61
2023/03/05 08:49:40;;;;;;;32.23;14.17;;;4.10;47.60;;;;;;5030115;28;47099;-61
2023/03/05 08:52:06;;;;;;;33.07;15.07;;;4.10;47.60;;;;;;5027857;28;46355;-60
2023/03/05 08:54:32;;;;;;;28.87;15.40;;;4.20;47.70;;;;;;5032946;28;46446;-61
2023/03/05 08:56:58;;;;;;;31.00;14.13;;;4.30;47.70;;;;;;5031938;28;46431;-62
2023/03/05 08:59:24;;;;;;;29.97;15.20;;;4.40;47.70;;;;;;5030269;28;47391;-61
2023/03/05 09:01:49;;;;;;;32.50;15.30;;;4.40;47.20;;;;;;5028620;28;46433;-62
2023/03/05 09:04:15;;;;;;;33.83;15.27;;;4.50;47.00;;;;;;5026623;28;46669;-62
2023/03/05 09:06:41;;;;;;;31.80;16.20;;;4.50;46.90;;;;;;5029321;28;45919;-62
2023/03/05 09:09:08;;;;;;;32.80;15.60;;;4.40;47.40;;;;;;5032573;28;46272;-62
2023/03/05 09:11:35;;;;;;;33.92;15.48;;;4.40;47.80;;;;;;5029424;28;46853;-61
2023/03/05 09:14:04;;;;;;;31.67;14.40;;;4.30;47.70;;;;;;5028176;28;46435;-61
2023/03/05 09:16:30;;;;;;;34.10;15.60;;;4.20;47.70;;;;;;5028247;28;46423;-62
2023/03/05 09:18:56;;;;;;;31.10;15.37;;;4.10;47.50;;;;;;5029124;28;48023;-62
2023/03/05 09:21:21;;;;;;;38.97;17.57;;;4.00;47.50;;;;;;5030203;28;46515;-58
2023/03/05 09:23:47;;;;;;;36.77;15.33;;;4.00;47.50;;;;;;5033029;28;46583;-60
2023/03/05 09:26:17;;;;;;;37.33;16.47;;;4.10;47.50;;;;;;5031487;28;46455;-61
2023/03/05 09:28:43;;;;;;;28.47;13.20;;;4.00;47.40;;;;;;5029749;28;48211;-61
2023/03/05 09:31:09;;;;;;;33.13;16.07;;;4.00;47.50;;;;;;5034258;28;46592;-59
2023/03/05 09:33:36;;;;;;;29.50;15.60;;;4.20;47.70;;;;;;5032972;28;46005;-61
2023/03/05 09:36:03;;;;;;;29.03;14.37;;;4.20;47.70;;;;;;5032378;28;45865;-60
2023/03/05 09:38:29;;;;;;;46.10;16.20;;;4.10;47.60;;;;;;5029183;28;46419;-60
2023/03/05 09:40:58;;;;;;;26.58;15.45;;;4.20;47.70;;;;;;5034641;28;46376;-61
2023/03/05 09:43:48;;;;;;;32.47;16.20;;;4.20;47.70;;;;;;5031273;28;46443;-61
2023/03/05 09:47:00;;;;;;;35.30;15.63;;;4.20;47.70;;;;;;5035082;28;46323;-61
2023/03/05 09:50:16;;;;;;;33.67;15.80;;;4.30;47.70;;;;;;5025309;28;46364;-60
2023/03/05 09:52:56;;;;;;;32.58;14.80;;;4.40;47.80;;;;;;4966195;28;45892;-61
2023/03/05 09:55:24;;;;;;;37.60;14.85;;;4.40;47.80;;;;;;5031160;28;45859;-61
2023/03/05 09:57:55;;;;;;;40.37;16.53;;;4.30;49.00;;;;;;5034396;28;46438;-61
2023/03/05 10:00:43;;;;;;;32.93;15.50;;;4.20;47.70;;;;;;5032102;28;47030;-61
2023/03/05 10:03:29;;;;;;;36.38;14.18;;;4.10;47.60;;;;;;5033088;28;45859;-63
2023/03/05 10:06:06;;;;;;;31.13;15.20;;;4.00;48.20;;;;;;5029599;28;46439;-62
2023/03/05 10:08:53;;;;;;;34.97;15.53;;;3.90;48.60;;;;;;5034124;28;46431;-61
2023/03/05 10:11:44;;;;;;;36.03;15.07;;;4.00;48.40;;;;;;5036706;28;46591;-62
2023/03/05 10:14:24;;;;;;;35.45;16.23;;;4.20;47.70;;;;;;5007480;28;46676;-62
2023/03/05 10:17:00;;;;;;;32.83;14.90;;;4.20;47.70;;;;;;5013820;28;46361;-62
2023/03/05 10:19:40;;;;;;;42.93;17.17;;;4.10;48.30;;;;;;5030368;28;45982;-62
2023/03/05 10:22:19;;;;;;;56.33;24.07;;;4.20;48.20;;;;;;5033442;28;46506;-61
2023/03/05 10:25:07;;;;;;;36.35;15.93;;;4.40;47.90;;;;;;5028543;28;46419;-62
2023/03/05 10:27:50;;;;;;;40.57;17.33;;;4.40;47.90;;;;;;5029327;28;46418;-67
2023/03/05 10:30:54;;;;;;;35.20;14.97;;;4.40;47.90;;;;;;5031999;28;46409;-63
2023/03/05 10:33:28;;;;;;;35.13;16.00;;;4.40;47.80;;;;;;4986979;28;46216;-62
2023/03/05 10:35:56;;;;;;;34.92;14.50;;;4.40;48.30;;;;;;4990741;28;46443;-61
2023/03/05 10:38:36;;;;;;;33.10;14.80;;;4.40;48.20;;;;;;5014148;28;46686;-62
2023/03/05 10:41:51;;;;;;;31.73;15.63;;;4.40;48.20;;;;;;5034254;28;46410;-62
2023/03/05 10:44:40;;;;;;;31.00;14.57;;;4.30;48.60;;;;;;5013933;28;47190;-61
2023/03/05 10:47:20;;;;;;;36.45;14.65;;;4.30;48.80;;;;;;5032511;28;46448;-62
2023/03/05 10:49:50;;;;;;;34.27;15.57;;;4.40;48.40;;;;;;5031486;28;46480;-61
2023/03/05 10:52:35;;;;;;;35.83;14.80;;;4.50;48.30;;;;;;5031972;28;46355;-59
2023/03/05 10:55:12;;;;;;;35.37;15.20;;;4.60;48.00;;;;;;5030624;28;47043;-61
2023/03/05 10:57:38;;;;;;;33.67;15.25;;;4.70;48.10;;;;;;5031868;28;46560;-60
2023/03/05 11:00:16;;;;;;;33.33;14.77;;;4.60;48.00;;;;;;5029801;28;46457;-58
2023/03/05 11:02:57;;;;;;;28.00;15.00;;;4.60;49.20;;;;;;5029933;28;46489;-60
2023/03/05 11:05:35;;;;;;;33.83;16.13;;;4.50;47.90;;;;;;5030983;28;47652;-60
2023/03/05 11:08:33;;;;;;;29.43;13.33;;;4.60;48.00;;;;;;5027542;28;46414;-59
2023/03/05 11:11:05;;;;;;;34.07;14.07;;;4.50;48.10;;;;;;5032086;28;46484;-60
2023/03/05 11:13:32;;;;;;;28.83;13.80;;;4.70;48.20;;;;;;5028182;28;46323;-61
2023/03/05 11:16:16;;;;;;;26.83;13.60;;;4.50;48.10;;;;;;5035072;28;48160;-59
2023/03/05 11:18:43;;;;;;;29.00;13.53;;;4.70;48.20;;;;;;5032798;28;46431;-60
2023/03/05 11:21:17;;;;;;;34.73;13.87;;;4.60;48.10;;;;;;5032468;28;46406;-61
2023/03/05 11:23:42;;;;;;;29.03;12.77;;;4.60;48.00;;;;;;5018577;28;46785;-60
2023/03/05 11:26:11;;;;;;;39.43;14.07;;;4.70;48.10;;;;;;5033032;28;46436;-60
2023/03/05 11:28:55;;;;;;;32.80;14.77;;;4.80;48.20;;;;;;5032031;28;46396;-60
2023/03/05 11:31:24;;;;;;;33.57;14.00;;;5.00;48.30;;;;;;5032328;28;46485;-60
2023/03/05 11:33:57;;;;;;;28.87;13.50;;;5.00;48.40;;;;;;5026832;28;46411;-60
2023/03/05 11:36:29;;;;;;;31.47;13.97;;;5.10;48.40;;;;;;5029714;28;46877;-61
2023/03/05 11:39:07;;;;;;;28.40;13.70;;;5.20;48.00;;;;;;5029305;28;46213;-60
2023/03/05 11:41:43;;;;;;;33.83;14.60;;;5.30;47.70;;;;;;5029257;28;46402;-61
2023/03/05 11:44:13;;;;;;;34.70;13.27;;;5.40;47.50;;;;;;5027925;28;46144;-61
2023/03/05 11:46:50;;;;;;;28.67;13.63;;;5.50;47.40;;;;;;5030809;28;47202;-60
2023/03/05 11:49:22;;;;;;;29.33;12.90;;;5.40;47.20;;;;;;5027653;28;46508;-60
2023/03/05 11:52:13;;;;;;;32.17;14.73;;;5.30;47.50;;;;;;5031887;28;46186;-60
2023/03/05 11:54:44;;;;;;;28.77;13.83;;;5.10;47.70;;;;;;5028906;28;46452;-61
2023/03/05 11:57:14;;;;;;;31.13;12.80;;;4.90;48.20;;;;;;5031209;28;46393;-60
2023/03/05 11:59:40;;;;;;;25.90;12.30;;;4.80;48.20;;;;;;5026342;28;46470;-62
2023/03/05 12:02:17;;;;;;;24.10;13.23;;;4.70;48.10;;;;;;5032322;28;46673;-60
2023/03/05 12:04:43;;;;;;;31.70;11.57;;;4.60;48.00;;;;;;5028773;28;45785;-60
2023/03/05 12:07:11;;;;;;;26.67;11.50;;;4.70;48.00;;;;;;5028683;28;46422;-61
2023/03/05 12:09:54;;;;;;;29.17;13.20;;;4.70;48.10;;;;;;5013495;28;46641;-60
2023/03/05 12:12:31;;;;;;;24.40;11.67;;;4.80;48.20;;;;;;5009974;28;46450;-61
2023/03/05 12:15:11;;;;;;;28.27;12.80;;;4.80;47.60;;;;;;5023946;28;46528;-62
2023/03/05 12:17:48;;;;;;;25.67;12.07;;;4.80;47.70;;;;;;5027716;28;46371;-60
2023/03/05 12:20:34;;;;;;;24.48;12.45;;;4.70;47.70;;;;;;5031661;28;46375;-62
2023/03/05 12:23:00;;;;;;;24.90;12.13;;;4.80;48.80;;;;;;5030531;28;46364;-62
2023/03/05 12:25:45;;;;;;;21.70;10.90;;;5.00;46.60;;;;;;5026262;28;45937;-60
2023/03/05 12:28:34;;;;;;;24.30;11.57;;;5.10;46.60;;;;;;5028777;28;46896;-60
2023/03/05 12:31:04;;;;;;;25.50;12.30;;;5.10;46.10;;;;;;5020491;28;46522;-61
2023/03/05 12:33:35;;;;;;;29.37;13.60;;;5.10;46.20;;;;;;5033536;28;46399;-59
2023/03/05 12:36:19;;;;;;;23.90;12.20;;;5.20;46.10;;;;;;5028907;28;46375;-62
2023/03/05 12:38:52;;;;;;;32.83;12.20;;;5.30;45.60;;;;;;5025743;28;46526;-61
2023/03/05 12:41:23;;;;;;;26.40;12.27;;;5.30;46.20;;;;;;5030346;28;46488;-62
2023/03/05 12:44:04;;;;;;;28.20;12.07;;;5.20;45.00;;;;;;5028609;28;46442;-60
2023/03/05 12:46:40;;;;;;;26.17;11.30;;;5.20;45.00;;;;;;5030596;28;46621;-63